Time;durP1;ratioP1;P1;durP2;ratioP2;P2;SDS_P1;SDS_P2;PMS_P1;PMS_P2;Temp;Humidity;BMP_temperature;BMP_pressure;BME280_temperature;BME280_humidity;BME280_pressure;Samples;Min_cycle;Max_cycle;Signal;HPM_P1;HPM_P2
2020/12/31 00:01:28;;;;;;;2.53;1.90;;;;;;;;;;5033514;28;20053;-87
2020/12/31 00:03:54;;;;;;;2.72;2.53;;;;;;;;;;5015605;28;20024;-88
2020/12/31 00:06:20;;;;;;;1.38;1.27;;;;;;;;;;5033053;28;20104;-87
2020/12/31 00:08:46;;;;;;;1.90;1.80;;;;;;;;;;5033453;28;20028;-87
2020/12/31 00:11:13;;;;;;;3.03;2.13;;;;;;;;;;5015605;28;20034;-87
2020/12/31 00:13:39;;;;;;;2.58;2.05;;;;;;;;;;5015622;28;20021;-88
2020/12/31 00:16:05;;;;;;;1.48;1.13;;;;;;;;;;5033479;28;20104;-88
2020/12/31 00:18:31;;;;;;;2.13;1.88;;;;;;;;;;5015531;28;20029;-87
2020/12/31 00:20:58;;;;;;;2.33;1.48;;;;;;;;;;5033457;28;20483;-87
2020/12/31 00:23:24;;;;;;;2.00;1.40;;;;;;;;;;5014783;28;20037;-87
2020/12/31 00:25:54;;;;;;;3.00;2.17;;;;;;;;;;5015370;28;20033;-87
2020/12/31 00:28:20;;;;;;;3.05;1.80;;;;;;;;;;5015370;28;20117;-87
2020/12/31 00:30:47;;;;;;;2.42;1.85;;;;;;;;;;5015516;28;20036;-87
2020/12/31 00:33:14;;;;;;;2.80;2.17;;;;;;;;;;5015304;28;20439;-87
2020/12/31 00:35:40;;;;;;;2.80;2.20;;;;;;;;;;5014929;28;20033;-87
2020/12/31 00:38:06;;;;;;;1.92;1.52;;;;;;;;;;5022280;28;20515;-87
2020/12/31 00:40:33;;;;;;;2.30;1.85;;;;;;;;;;5013552;28;20022;-87
2020/12/31 00:43:00;;;;;;;1.80;1.55;;;;;;;;;;5013483;28;20049;-87
2020/12/31 00:45:26;;;;;;;2.28;2.03;;;;;;;;;;4995438;28;20443;-87
2020/12/31 00:47:52;;;;;;;1.90;1.67;;;;;;;;;;4997829;28;20072;-87
2020/12/31 00:50:18;;;;;;;1.90;1.80;;;;;;;;;;5017096;28;20501;-87
2020/12/31 00:52:44;;;;;;;1.60;1.50;;;;;;;;;;5016865;28;20038;-87
2020/12/31 00:55:10;;;;;;;1.60;1.38;;;;;;;;;;4999462;28;20030;-87
2020/12/31 00:57:36;;;;;;;1.58;1.48;;;;;;;;;;4999258;28;20057;-87
2020/12/31 01:00:05;;;;;;;1.52;1.42;;;;;;;;;;4999061;28;20022;-87
2020/12/31 01:02:31;;;;;;;1.77;1.38;;;;;;;;;;5016305;28;20477;-87
2020/12/31 01:04:57;;;;;;;3.28;2.08;;;;;;;;;;5016811;28;20473;-87
2020/12/31 01:07:23;;;;;;;2.58;2.05;;;;;;;;;;4998915;28;20489;-87
2020/12/31 01:09:49;;;;;;;1.70;1.40;;;;;;;;;;4998783;28;20092;-87
2020/12/31 01:12:15;;;;;;;1.77;1.67;;;;;;;;;;4998880;28;20033;-87
2020/12/31 01:14:41;;;;;;;2.35;1.55;;;;;;;;;;4995220;28;20458;-87
2020/12/31 01:17:07;;;;;;;3.55;1.83;;;;;;;;;;5010574;28;20022;-87
2020/12/31 01:19:33;;;;;;;2.67;2.08;;;;;;;;;;4998006;28;20033;-88
2020/12/31 01:21:59;;;;;;;2.20;1.63;;;;;;;;;;4998703;28;20026;-87
2020/12/31 01:24:25;;;;;;;1.77;1.60;;;;;;;;;;4998672;28;20381;-87
2020/12/31 01:26:52;;;;;;;2.22;1.95;;;;;;;;;;5016268;28;20473;-87
2020/12/31 01:29:18;;;;;;;2.95;2.13;;;;;;;;;;4998243;28;20485;-87
2020/12/31 01:31:48;;;;;;;2.40;1.40;;;;;;;;;;5015931;28;20101;-87
2020/12/31 01:34:14;;;;;;;1.77;1.40;;;;;;;;;;4998019;28;20058;-87
2020/12/31 01:36:40;;;;;;;4.18;3.25;;;;;;;;;;5016324;28;20037;-87
2020/12/31 01:39:06;;;;;;;2.30;2.00;;;;;;;;;;5034791;28;20032;-87
2020/12/31 01:41:32;;;;;;;1.73;1.42;;;;;;;;;;5017461;28;20033;-88
2020/12/31 01:44:05;;;;;;;2.25;1.90;;;;;;;;;;5036351;28;20027;-87
2020/12/31 01:46:32;;;;;;;1.48;1.38;;;;;;;;;;5018039;28;20031;-87
2020/12/31 01:48:59;;;;;;;2.47;1.67;;;;;;;;;;5035745;28;20400;-87
2020/12/31 01:51:25;;;;;;;1.95;1.40;;;;;;;;;;5017832;28;20028;-87
2020/12/31 01:53:56;;;;;;;1.67;1.35;;;;;;;;;;5035439;28;20049;-87
2020/12/31 01:56:25;;;;;;;1.95;1.75;;;;;;;;;;5017542;28;20038;-87
2020/12/31 01:58:51;;;;;;;1.40;1.10;;;;;;;;;;5016979;28;20025;-88
2020/12/31 02:01:17;;;;;;;3.08;1.33;;;;;;;;;;5035230;28;20104;-86
2020/12/31 02:03:43;;;;;;;1.95;1.83;;;;;;;;;;5017490;28;20161;-87
2020/12/31 02:06:09;;;;;;;1.50;1.40;;;;;;;;;;5017411;28;20399;-87
2020/12/31 02:08:35;;;;;;;1.20;1.10;;;;;;;;;;5017399;28;20492;-87
2020/12/31 02:11:01;;;;;;;1.30;1.20;;;;;;;;;;5035263;28;20510;-87
2020/12/31 02:13:27;;;;;;;4.90;1.95;;;;;;;;;;5035349;28;20029;-87
2020/12/31 02:15:53;;;;;;;3.03;1.98;;;;;;;;;;5017140;28;20404;-87
2020/12/31 02:18:19;;;;;;;2.35;1.85;;;;;;;;;;5017374;28;20029;-88
2020/12/31 02:20:45;;;;;;;1.92;1.33;;;;;;;;;;5035047;28;20028;-87
2020/12/31 02:23:11;;;;;;;2.33;1.20;;;;;;;;;;5034707;28;20053;-87
2020/12/31 02:25:37;;;;;;;1.35;1.00;;;;;;;;;;5017130;28;20033;-87
2020/12/31 02:28:03;;;;;;;2.05;1.08;;;;;;;;;;5017180;28;20031;-87
2020/12/31 02:30:29;;;;;;;1.20;1.10;;;;;;;;;;5034957;28;20029;-87
2020/12/31 02:32:55;;;;;;;2.05;1.85;;;;;;;;;;5034908;28;20079;-87
2020/12/31 02:35:21;;;;;;;2.17;1.10;;;;;;;;;;5034716;28;20069;-87
2020/12/31 02:37:47;;;;;;;2.50;1.55;;;;;;;;;;5008889;28;20022;-87
2020/12/31 02:40:13;;;;;;;1.38;0.85;;;;;;;;;;4997111;28;20025;-87
2020/12/31 02:42:39;;;;;;;2.38;1.33;;;;;;;;;;5014987;28;20018;-87
2020/12/31 02:45:05;;;;;;;1.33;1.02;;;;;;;;;;4997132;28;20022;-87
2020/12/31 02:47:35;;;;;;;1.23;1.00;;;;;;;;;;4997060;28;20075;-87
2020/12/31 02:50:01;;;;;;;1.23;1.08;;;;;;;;;;4997024;28;20030;-87
2020/12/31 02:52:27;;;;;;;1.20;1.10;;;;;;;;;;5014819;28;20481;-87
2020/12/31 02:54:53;;;;;;;0.95;0.90;;;;;;;;;;5014547;28;20116;-87
2020/12/31 02:57:19;;;;;;;1.25;1.15;;;;;;;;;;4996856;28;20093;-88
2020/12/31 02:59:45;;;;;;;0.65;0.65;;;;;;;;;;5013607;28;20393;-87
2020/12/31 03:02:11;;;;;;;1.00;1.00;;;;;;;;;;4996813;28;20420;-88
2020/12/31 03:04:37;;;;;;;1.27;0.68;;;;;;;;;;4996643;28;20540;-87
2020/12/31 03:07:03;;;;;;;1.10;0.68;;;;;;;;;;4996678;28;20030;-87
2020/12/31 03:09:29;;;;;;;1.52;1.20;;;;;;;;;;5014188;28;20469;-87
2020/12/31 03:11:55;;;;;;;0.50;0.50;;;;;;;;;;4995898;28;20531;-87
2020/12/31 03:14:21;;;;;;;0.93;0.93;;;;;;;;;;4996775;28;20065;-87
2020/12/31 03:16:48;;;;;;;1.20;0.85;;;;;;;;;;4996584;28;20021;-87
2020/12/31 03:19:14;;;;;;;0.47;0.47;;;;;;;;;;4996600;28;20030;-87
2020/12/31 03:21:40;;;;;;;1.40;1.05;;;;;;;;;;5014098;28;20397;-87
2020/12/31 03:24:06;;;;;;;1.25;0.70;;;;;;;;;;5014175;28;20389;-87
2020/12/31 03:26:32;;;;;;;1.08;0.85;;;;;;;;;;4996365;28;20057;-87
2020/12/31 03:28:58;;;;;;;1.00;0.85;;;;;;;;;;4996509;28;20037;-88
2020/12/31 03:31:24;;;;;;;1.58;0.70;;;;;;;;;;5014130;28;20041;-87
2020/12/31 03:33:50;;;;;;;0.70;0.68;;;;;;;;;;5013963;28;20034;-87
2020/12/31 03:36:16;;;;;;;0.98;0.80;;;;;;;;;;4995415;28;20032;-87
2020/12/31 03:38:42;;;;;;;0.82;0.73;;;;;;;;;;5029212;28;20504;-87
2020/12/31 03:41:08;;;;;;;0.90;0.60;;;;;;;;;;5015779;28;20022;-87
2020/12/31 03:43:34;;;;;;;1.15;0.88;;;;;;;;;;5033367;28;20029;-87
2020/12/31 03:46:01;;;;;;;0.60;0.60;;;;;;;;;;5015809;28;20412;-87
2020/12/31 03:48:27;;;;;;;0.88;0.70;;;;;;;;;;5033617;28;20033;-87
2020/12/31 03:50:53;;;;;;;0.50;0.50;;;;;;;;;;5033451;28;20033;-88
2020/12/31 03:53:19;;;;;;;0.80;0.52;;;;;;;;;;5033247;28;20050;-87
2020/12/31 03:55:45;;;;;;;1.45;0.70;;;;;;;;;;5015613;28;20030;-87
2020/12/31 03:58:11;;;;;;;0.52;0.40;;;;;;;;;;5033400;28;20083;-88
2020/12/31 04:00:37;;;;;;;1.63;0.85;;;;;;;;;;5015538;28;20032;-87
2020/12/31 04:03:03;;;;;;;0.40;0.40;;;;;;;;;;5033737;28;20027;-87
2020/12/31 04:05:29;;;;;;;0.70;0.70;;;;;;;;;;5015390;28;20033;-87
2020/12/31 04:07:55;;;;;;;0.50;0.50;;;;;;;;;;5033456;28;20032;-87
2020/12/31 04:10:21;;;;;;;1.00;0.90;;;;;;;;;;5033529;28;20030;-87
2020/12/31 04:12:47;;;;;;;0.32;0.30;;;;;;;;;;5033202;28;20480;-87
2020/12/31 04:15:13;;;;;;;0.47;0.47;;;;;;;;;;5014737;28;20412;-87
2020/12/31 04:17:39;;;;;;;1.23;0.98;;;;;;;;;;5015294;28;20031;-87
2020/12/31 04:20:06;;;;;;;1.00;0.60;;;;;;;;;;5033150;28;20048;-87
2020/12/31 04:22:32;;;;;;;1.63;1.13;;;;;;;;;;5035421;28;20032;-87
2020/12/31 04:24:58;;;;;;;0.65;0.47;;;;;;;;;;5019147;28;20557;-87
2020/12/31 04:27:24;;;;;;;0.88;0.70;;;;;;;;;;5037135;28;20104;-87
2020/12/31 04:29:50;;;;;;;1.55;0.63;;;;;;;;;;5037201;28;20022;-87
2020/12/31 04:32:16;;;;;;;0.63;0.50;;;;;;;;;;5037004;28;20025;-87
2020/12/31 04:34:42;;;;;;;0.70;0.70;;;;;;;;;;5018932;28;20021;-87
2020/12/31 04:37:08;;;;;;;0.55;0.50;;;;;;;;;;5033954;28;20037;-87
2020/12/31 04:39:34;;;;;;;0.75;0.60;;;;;;;;;;4999452;28;20053;-87
2020/12/31 04:42:00;;;;;;;0.75;0.70;;;;;;;;;;5017059;28;20500;-87
2020/12/31 04:44:27;;;;;;;1.08;0.47;;;;;;;;;;5017145;28;20068;-87
2020/12/31 04:46:54;;;;;;;0.45;0.35;;;;;;;;;;5017207;28;20436;-87
2020/12/31 04:49:21;;;;;;;0.32;0.30;;;;;;;;;;5016943;28;20026;-87
2020/12/31 04:51:53;;;;;;;0.93;0.60;;;;;;;;;;4998458;28;20108;-87
2020/12/31 04:54:20;;;;;;;0.47;0.40;;;;;;;;;;4998390;28;20046;-87
2020/12/31 04:56:47;;;;;;;0.52;0.50;;;;;;;;;;4998957;28;20034;-87
2020/12/31 04:59:13;;;;;;;0.25;0.25;;;;;;;;;;5016674;28;20029;-87
2020/12/31 05:01:45;;;;;;;0.38;0.25;;;;;;;;;;4998913;28;20103;-87
2020/12/31 05:04:11;;;;;;;0.68;0.40;;;;;;;;;;4998875;28;20405;-87
2020/12/31 05:06:39;;;;;;;0.85;0.85;;;;;;;;;;5016498;28;20034;-87
2020/12/31 05:09:17;;;;;;;1.05;0.88;;;;;;;;;;5016327;28;20030;-87
2020/12/31 05:11:44;;;;;;;0.30;0.30;;;;;;;;;;5016627;28;20030;-87
2020/12/31 05:14:11;;;;;;;0.68;0.40;;;;;;;;;;5016483;28;20030;-87
2020/12/31 05:16:37;;;;;;;0.43;0.40;;;;;;;;;;5016399;28;20083;-87
2020/12/31 05:19:19;;;;;;;0.38;0.38;;;;;;;;;;5016400;28;20503;-87
2020/12/31 05:21:45;;;;;;;0.32;0.32;;;;;;;;;;4998360;28;20038;-87
2020/12/31 05:24:14;;;;;;;0.22;0.22;;;;;;;;;;5016243;28;20378;-87
2020/12/31 05:26:41;;;;;;;0.68;0.38;;;;;;;;;;4995237;28;20406;-87
2020/12/31 05:29:08;;;;;;;0.52;0.40;;;;;;;;;;5011617;28;20033;-87
2020/12/31 05:31:53;;;;;;;0.30;0.30;;;;;;;;;;4998525;28;20033;-87
2020/12/31 05:34:29;;;;;;;0.75;0.43;;;;;;;;;;5014971;28;20496;-87
2020/12/31 05:36:55;;;;;;;0.40;0.20;;;;;;;;;;4999157;28;20117;-87
2020/12/31 05:39:21;;;;;;;0.20;0.20;;;;;;;;;;5018102;28;20025;-87
2020/12/31 05:41:47;;;;;;;0.40;0.20;;;;;;;;;;5035698;28;20021;-87
2020/12/31 05:44:13;;;;;;;0.28;0.28;;;;;;;;;;5035792;28;20057;-87
2020/12/31 05:46:39;;;;;;;0.22;0.20;;;;;;;;;;5035896;28;20025;-87
2020/12/31 05:49:08;;;;;;;0.28;0.20;;;;;;;;;;5035102;28;20030;-87
2020/12/31 05:51:35;;;;;;;0.13;0.13;;;;;;;;;;5018064;28;20025;-87
2020/12/31 05:54:08;;;;;;;0.20;0.20;;;;;;;;;;5035525;28;20060;-87
2020/12/31 05:56:35;;;;;;;0.20;0.20;;;;;;;;;;5017520;28;20034;-87
2020/12/31 05:59:20;;;;;;;0.47;0.30;;;;;;;;;;5017434;28;20041;-88
2020/12/31 06:01:54;;;;;;;0.30;0.20;;;;;;;;;;5017582;28;20022;-87
2020/12/31 06:04:22;;;;;;;1.10;0.63;;;;;;;;;;5017365;28;20036;-89
2020/12/31 06:06:49;;;;;;;0.45;0.30;;;;;;;;;;5022995;28;20018;-86
2020/12/31 06:09:20;;;;;;;0.40;0.40;;;;;;;;;;5010200;28;20076;-86
2020/12/31 06:11:51;;;;;;;0.20;0.20;;;;;;;;;;5028433;28;20026;-87
2020/12/31 06:14:20;;;;;;;0.35;0.35;;;;;;;;;;5015781;28;20068;-87
2020/12/31 06:16:54;;;;;;;0.35;0.25;;;;;;;;;;5015651;28;20033;-87
2020/12/31 06:19:20;;;;;;;;;;;;;;;;;;5016050;28;20065;-87
2020/12/31 06:21:58;;;;;;;1.75;0.73;;;;;;;;;;5008831;28;19932;-86
2020/12/31 06:24:28;;;;;;;0.20;0.20;;;;;;;;;;5033799;28;20021;-86
2020/12/31 06:26:54;;;;;;;0.28;0.22;;;;;;;;;;5033903;28;20029;-87
2020/12/31 06:29:20;;;;;;;0.75;0.70;;;;;;;;;;5035095;28;20396;-87
2020/12/31 06:31:50;;;;;;;1.50;0.50;;;;;;;;;;5033765;28;20025;-87
2020/12/31 06:34:19;;;;;;;1.30;0.30;;;;;;;;;;5033635;28;20021;-87
2020/12/31 06:36:46;;;;;;;0.40;0.40;;;;;;;;;;5033524;28;20025;-87
2020/12/31 06:39:19;;;;;;;0.35;0.30;;;;;;;;;;5034630;28;20400;-87
2020/12/31 06:41:45;;;;;;;0.30;0.30;;;;;;;;;;5034717;28;20053;-87
2020/12/31 06:44:12;;;;;;;0.25;0.22;;;;;;;;;;5034247;28;20400;-86
2020/12/31 06:46:39;;;;;;;0.45;0.28;;;;;;;;;;5017158;28;20053;-86
2020/12/31 06:49:05;;;;;;;1.17;0.93;;;;;;;;;;5016607;28;20379;-87
2020/12/31 06:51:32;;;;;;;0.35;0.35;;;;;;;;;;5015633;28;20041;-86
2020/12/31 06:53:58;;;;;;;0.75;0.40;;;;;;;;;;5027087;28;20133;-86
2020/12/31 06:56:44;;;;;;;0.50;0.25;;;;;;;;;;5027505;28;20048;-88
2020/12/31 06:59:29;;;;;;;0.70;0.55;;;;;;;;;;5009435;28;20401;-86
2020/12/31 07:01:55;;;;;;;2.05;0.75;;;;;;;;;;5035951;28;20107;-88
2020/12/31 07:04:35;;;;;;;1.17;1.08;;;;;;;;;;5015787;28;20025;-88
2020/12/31 07:07:02;;;;;;;1.17;0.95;;;;;;;;;;5015089;28;20033;-89
2020/12/31 07:09:32;;;;;;;0.30;0.30;;;;;;;;;;5023034;28;20025;-88
2020/12/31 07:12:08;;;;;;;0.60;0.30;;;;;;;;;;5016807;28;20481;-87
2020/12/31 07:14:35;;;;;;;0.70;0.70;;;;;;;;;;5009138;28;20029;-87
2020/12/31 07:17:09;;;;;;;0.73;0.73;;;;;;;;;;5034275;28;20083;-86
2020/12/31 07:19:35;;;;;;;;;;;;;;;;;;4996860;28;20486;-86
2020/12/31 07:22:01;;;;;;;0.50;0.50;;;;;;;;;;5021211;28;19905;-86
2020/12/31 07:24:28;;;;;;;0.65;0.50;;;;;;;;;;5016123;28;20365;-86
2020/12/31 07:26:56;;;;;;;0.75;0.75;;;;;;;;;;5013435;28;20703;-87
2020/12/31 07:29:25;;;;;;;0.40;0.38;;;;;;;;;;5015074;28;20116;-88
2020/12/31 07:31:52;;;;;;;1.67;0.40;;;;;;;;;;5013712;28;20022;-90
2020/12/31 07:34:28;;;;;;;2.17;0.70;;;;;;;;;;5032053;28;20040;-91
2020/12/31 07:37:07;;;;;;;0.88;0.40;;;;;;;;;;5032519;28;20029;-91
2020/12/31 07:39:34;;;;;;;0.55;0.55;;;;;;;;;;5025616;28;20025;-91
2020/12/31 07:42:17;;;;;;;0.30;0.30;;;;;;;;;;5011518;28;20028;-91
2020/12/31 07:44:50;;;;;;;0.57;0.57;;;;;;;;;;5028765;28;20033;-90
2020/12/31 07:47:17;;;;;;;0.68;0.68;;;;;;;;;;5031536;28;20063;-90
2020/12/31 07:49:47;;;;;;;1.45;1.10;;;;;;;;;;5013754;28;20025;-91
2020/12/31 07:52:13;;;;;;;2.13;1.20;;;;;;;;;;5012947;28;20029;-91
2020/12/31 07:54:39;;;;;;;1.67;1.48;;;;;;;;;;5031123;28;20048;-92
2020/12/31 07:57:09;;;;;;;1.27;1.17;;;;;;;;;;5014715;28;20032;-88
2020/12/31 07:59:39;;;;;;;18.42;2.90;;;;;;;;;;5032335;28;20022;-87
2020/12/31 08:02:06;;;;;;;3.90;1.65;;;;;;;;;;5028286;28;20032;-87
2020/12/31 08:04:32;;;;;;;1.90;1.73;;;;;;;;;;5029106;28;20029;-88
2020/12/31 08:07:01;;;;;;;1.33;1.08;;;;;;;;;;5024794;28;20022;-89
2020/12/31 08:09:27;;;;;;;4.55;1.42;;;;;;;;;;4996247;28;20104;-88
2020/12/31 08:11:53;;;;;;;1.85;1.25;;;;;;;;;;5032431;28;20045;-86
2020/12/31 08:14:19;;;;;;;1.73;1.30;;;;;;;;;;5025970;28;20091;-89
2020/12/31 08:16:58;;;;;;;1.23;1.10;;;;;;;;;;5011057;28;20072;-90
2020/12/31 08:19:25;;;;;;;1.50;0.88;;;;;;;;;;5030322;28;20571;-88
2020/12/31 08:21:53;;;;;;;1.48;1.17;;;;;;;;;;5011886;28;20447;-92
2020/12/31 08:24:20;;;;;;;1.73;1.00;;;;;;;;;;5031597;28;20033;-91
2020/12/31 08:26:58;;;;;;;1.95;1.85;;;;;;;;;;5028009;28;20507;-90
2020/12/31 08:29:26;;;;;;;0.70;0.70;;;;;;;;;;5006001;28;20065;-91
2020/12/31 08:31:54;;;;;;;1.40;1.30;;;;;;;;;;5009082;28;20462;-89
2020/12/31 08:34:25;;;;;;;1.20;1.08;;;;;;;;;;5030231;28;20051;-89
2020/12/31 08:36:51;;;;;;;2.13;1.20;;;;;;;;;;5007203;28;20036;-89
2020/12/31 08:39:19;;;;;;;1.35;1.17;;;;;;;;;;5031315;28;20096;-91
2020/12/31 08:42:12;;;;;;;1.52;1.08;;;;;;;;;;5028127;28;20056;-88
2020/12/31 08:44:43;;;;;;;2.45;1.45;;;;;;;;;;5016438;28;20037;-90
2020/12/31 08:47:23;;;;;;;1.95;1.60;;;;;;;;;;5031930;28;20024;-90
2020/12/31 08:49:56;;;;;;;2.35;1.60;;;;;;;;;;5012100;28;20125;-87
2020/12/31 08:52:22;;;;;;;;;;;;;;;;;;5032558;28;20033;-87
2020/12/31 08:55:04;;;;;;;2.03;1.58;;;;;;;;;;5017104;28;19913;-85
2020/12/31 08:57:30;;;;;;;2.63;1.67;;;;;;;;;;5013323;28;20029;-89
2020/12/31 08:59:56;;;;;;;2.65;2.25;;;;;;;;;;5028664;28;20037;-89
2020/12/31 09:02:22;;;;;;;2.65;2.10;;;;;;;;;;5025655;28;20423;-88
2020/12/31 09:04:48;;;;;;;2.03;1.58;;;;;;;;;;5015731;28;20040;-88
2020/12/31 09:07:14;;;;;;;5.30;2.65;;;;;;;;;;5032404;28;20056;-87
2020/12/31 09:09:40;;;;;;;4.63;2.50;;;;;;;;;;5033925;28;20018;-86
2020/12/31 09:12:10;;;;;;;2.85;2.10;;;;;;;;;;5026175;28;20025;-86
2020/12/31 09:14:37;;;;;;;3.53;2.40;;;;;;;;;;5035077;28;20017;-87
2020/12/31 09:17:22;;;;;;;3.08;2.65;;;;;;;;;;5033235;28;20017;-86
2020/12/31 09:19:55;;;;;;;2.72;1.95;;;;;;;;;;5016670;28;20025;-86
2020/12/31 09:22:21;;;;;;;2.20;1.90;;;;;;;;;;5035867;28;20049;-88
2020/12/31 09:24:47;;;;;;;2.58;2.17;;;;;;;;;;5034517;28;20530;-87
2020/12/31 09:27:22;;;;;;;3.22;1.73;;;;;;;;;;5035593;28;20009;-87
2020/12/31 09:29:55;;;;;;;2.75;2.15;;;;;;;;;;5029819;28;20033;-88
2020/12/31 09:32:21;;;;;;;3.38;2.13;;;;;;;;;;4998934;28;20094;-88
2020/12/31 09:34:47;;;;;;;2.58;2.10;;;;;;;;;;5032527;28;20025;-88
2020/12/31 09:37:15;;;;;;;2.17;1.95;;;;;;;;;;5013382;28;20020;-87
2020/12/31 09:39:42;;;;;;;3.78;2.05;;;;;;;;;;5016221;28;20066;-88
2020/12/31 09:42:08;;;;;;;2.15;2.00;;;;;;;;;;5014853;28;20481;-86
2020/12/31 09:44:34;;;;;;;3.33;2.10;;;;;;;;;;5018278;28;20486;-87
2020/12/31 09:47:00;;;;;;;3.25;2.42;;;;;;;;;;4997908;28;20432;-87
2020/12/31 09:49:26;;;;;;;3.83;2.30;;;;;;;;;;5001414;28;20037;-84
2020/12/31 09:51:52;;;;;;;5.75;1.60;;;;;;;;;;5029354;28;20057;-86
2020/12/31 09:54:19;;;;;;;3.92;2.22;;;;;;;;;;5024010;28;20463;-87
2020/12/31 09:56:45;;;;;;;3.75;2.03;;;;;;;;;;5016775;28;20084;-86
2020/12/31 09:59:11;;;;;;;2.83;2.05;;;;;;;;;;5034173;28;20029;-86
2020/12/31 10:01:37;;;;;;;2.05;1.90;;;;;;;;;;5032955;28;20400;-84
2020/12/31 10:04:03;;;;;;;1.95;1.60;;;;;;;;;;5016127;28;20114;-88
2020/12/31 10:06:29;;;;;;;3.92;1.80;;;;;;;;;;5015628;28;20504;-87
2020/12/31 10:08:55;;;;;;;3.42;2.75;;;;;;;;;;4998053;28;20092;-88
2020/12/31 10:11:21;;;;;;;2.25;1.73;;;;;;;;;;5016065;28;20072;-87
2020/12/31 10:13:48;;;;;;;4.47;1.95;;;;;;;;;;5004741;28;20477;-88
2020/12/31 10:16:14;;;;;;;2.90;2.08;;;;;;;;;;5033010;28;20031;-89
2020/12/31 10:18:40;;;;;;;2.17;1.98;;;;;;;;;;5031390;28;20504;-88
2020/12/31 10:21:06;;;;;;;1.92;1.80;;;;;;;;;;5032420;28;20477;-88
2020/12/31 10:23:33;;;;;;;1.73;1.63;;;;;;;;;;5015507;28;20101;-89
2020/12/31 10:25:59;;;;;;;2.90;2.53;;;;;;;;;;5034023;28;20092;-86
2020/12/31 10:28:25;;;;;;;2.50;1.83;;;;;;;;;;5031025;28;20035;-87
2020/12/31 10:30:51;;;;;;;2.35;1.85;;;;;;;;;;5033182;28;20101;-86
2020/12/31 10:33:17;;;;;;;2.20;1.90;;;;;;;;;;5025247;28;20029;-87
2020/12/31 10:35:44;;;;;;;2.10;1.52;;;;;;;;;;5012942;28;20061;-86
2020/12/31 10:38:10;;;;;;;3.20;2.10;;;;;;;;;;5023378;28;20117;-87
2020/12/31 10:40:36;;;;;;;4.85;2.03;;;;;;;;;;5030513;28;20025;-87
2020/12/31 10:43:02;;;;;;;1.60;1.50;;;;;;;;;;5030510;28;20074;-88
2020/12/31 10:45:28;;;;;;;1.95;1.52;;;;;;;;;;5033263;28;20026;-87
2020/12/31 10:47:54;;;;;;;2.33;1.35;;;;;;;;;;5033078;28;20038;-88
2020/12/31 10:50:20;;;;;;;1.67;1.58;;;;;;;;;;5032337;28;20032;-87
2020/12/31 10:52:46;;;;;;;2.28;2.08;;;;;;;;;;5033563;28;20469;-86
2020/12/31 10:55:12;;;;;;;1.80;1.70;;;;;;;;;;5033026;28;20025;-86
2020/12/31 10:57:38;;;;;;;2.42;2.22;;;;;;;;;;5027231;28;20116;-86
2020/12/31 11:00:04;;;;;;;1.33;1.23;;;;;;;;;;5014578;28;20028;-85
2020/12/31 11:02:30;;;;;;;1.38;1.27;;;;;;;;;;5030837;28;20017;-85
2020/12/31 11:04:57;;;;;;;2.72;2.08;;;;;;;;;;5030806;28;20029;-85
2020/12/31 11:07:23;;;;;;;2.35;2.00;;;;;;;;;;5031433;28;20025;-87
2020/12/31 11:09:49;;;;;;;2.60;1.67;;;;;;;;;;5032157;28;20087;-90
2020/12/31 11:12:15;;;;;;;1.95;1.85;;;;;;;;;;5032588;28;20029;-87
2020/12/31 11:14:41;;;;;;;2.88;1.02;;;;;;;;;;5015543;28;20461;-87
2020/12/31 11:17:07;;;;;;;2.20;1.60;;;;;;;;;;5016353;28;20028;-88
2020/12/31 11:19:33;;;;;;;1.70;1.60;;;;;;;;;;5016360;28;20021;-89
2020/12/31 11:21:59;;;;;;;3.25;2.85;;;;;;;;;;5011423;28;20029;-87
2020/12/31 11:24:25;;;;;;;3.15;1.60;;;;;;;;;;5030312;28;20021;-87
2020/12/31 11:26:51;;;;;;;2.03;1.75;;;;;;;;;;5029223;28;20026;-86
2020/12/31 11:29:18;;;;;;;3.38;2.50;;;;;;;;;;5023746;28;20116;-88
2020/12/31 11:31:44;;;;;;;2.88;1.90;;;;;;;;;;5023980;28;20037;-91
2020/12/31 11:34:10;;;;;;;2.25;1.88;;;;;;;;;;5015657;28;20034;-93
2020/12/31 11:36:36;;;;;;;3.38;1.88;;;;;;;;;;5007880;28;20037;-92
2020/12/31 11:39:02;;;;;;;2.38;1.80;;;;;;;;;;5003576;28;20026;-92
2020/12/31 11:41:28;;;;;;;3.58;2.38;;;;;;;;;;5001841;28;20029;-92
2020/12/31 11:43:54;;;;;;;2.20;1.60;;;;;;;;;;5012545;28;20029;-92
2020/12/31 11:46:20;;;;;;;2.72;2.20;;;;;;;;;;5018985;28;20029;-92
2020/12/31 11:48:46;;;;;;;2.58;1.67;;;;;;;;;;5037614;28;20061;-91
2020/12/31 11:51:12;;;;;;;2.38;2.03;;;;;;;;;;5036398;28;20510;-92
2020/12/31 11:53:41;;;;;;;2.20;1.98;;;;;;;;;;5019059;28;20050;-92
2020/12/31 11:56:08;;;;;;;2.58;1.77;;;;;;;;;;5019987;28;20049;-92
2020/12/31 11:58:34;;;;;;;3.22;1.88;;;;;;;;;;5017770;28;20038;-92
2020/12/31 12:01:00;;;;;;;2.45;2.25;;;;;;;;;;4998164;28;20555;-91
2020/12/31 12:03:26;;;;;;;4.13;2.10;;;;;;;;;;4998633;28;20140;-92
2020/12/31 12:05:53;;;;;;;2.25;2.05;;;;;;;;;;5016923;28;20018;-92
2020/12/31 12:08:21;;;;;;;2.70;1.73;;;;;;;;;;5028232;28;20033;-91
2020/12/31 12:10:49;;;;;;;3.22;1.52;;;;;;;;;;5033218;28;20064;-92
2020/12/31 12:13:15;;;;;;;2.00;1.60;;;;;;;;;;5017046;28;20029;-91
2020/12/31 12:15:42;;;;;;;1.95;1.80;;;;;;;;;;5009453;28;20098;-92
2020/12/31 12:18:08;;;;;;;2.55;2.17;;;;;;;;;;5018738;28;20481;-92
2020/12/31 12:20:34;;;;;;;3.13;1.58;;;;;;;;;;5017168;28;20076;-92
2020/12/31 12:23:00;;;;;;;2.25;1.55;;;;;;;;;;5003350;28;20030;-92
2020/12/31 12:25:26;;;;;;;1.92;1.30;;;;;;;;;;4996920;28;20121;-90
2020/12/31 12:27:52;;;;;;;2.13;1.55;;;;;;;;;;5014982;28;20450;-91
2020/12/31 12:30:18;;;;;;;1.40;1.30;;;;;;;;;;5001000;28;20504;-92
2020/12/31 12:32:46;;;;;;;2.13;1.73;;;;;;;;;;4994969;28;20600;-90
2020/12/31 12:35:12;;;;;;;3.25;1.67;;;;;;;;;;4999973;28;20057;-88
2020/12/31 12:37:38;;;;;;;2.35;1.30;;;;;;;;;;5001156;28;20025;-85
2020/12/31 12:40:06;;;;;;;2.85;1.58;;;;;;;;;;5011333;28;20034;-92
2020/12/31 12:42:32;;;;;;;1.77;1.00;;;;;;;;;;5025519;28;20540;-87
2020/12/31 12:44:58;;;;;;;2.00;1.52;;;;;;;;;;5028169;28;20484;-87
2020/12/31 12:47:24;;;;;;;5.65;1.80;;;;;;;;;;5035119;28;20092;-88
2020/12/31 12:49:50;;;;;;;9.15;2.00;;;;;;;;;;5011575;28;20026;-88
2020/12/31 12:52:16;;;;;;;1.50;1.40;;;;;;;;;;5022093;28;20030;-88
2020/12/31 12:54:42;;;;;;;1.92;1.38;;;;;;;;;;5015622;28;20037;-88
2020/12/31 12:57:08;;;;;;;1.42;1.17;;;;;;;;;;5001018;28;20033;-86
2020/12/31 12:59:35;;;;;;;2.00;1.80;;;;;;;;;;5015432;28;20168;-89
2020/12/31 13:02:01;;;;;;;1.45;1.35;;;;;;;;;;4998125;28;20026;-89
2020/12/31 13:04:27;;;;;;;1.30;1.13;;;;;;;;;;5014972;28;20045;-88
2020/12/31 13:06:53;;;;;;;2.15;1.20;;;;;;;;;;5015911;28;20038;-88
2020/12/31 13:09:19;;;;;;;1.10;1.00;;;;;;;;;;4998375;28;20033;-87
2020/12/31 13:11:45;;;;;;;1.40;1.30;;;;;;;;;;5016980;28;20037;-87
2020/12/31 13:14:11;;;;;;;1.52;1.42;;;;;;;;;;5024857;28;20856;-88
2020/12/31 13:16:37;;;;;;;2.72;1.45;;;;;;;;;;4998858;28;20034;-87
2020/12/31 13:19:04;;;;;;;0.63;0.60;;;;;;;;;;5016027;28;20037;-86
2020/12/31 13:21:30;;;;;;;2.17;0.90;;;;;;;;;;4997071;28;20029;-86
2020/12/31 13:23:56;;;;;;;1.23;0.90;;;;;;;;;;4998233;28;20021;-86
2020/12/31 13:26:22;;;;;;;1.27;1.17;;;;;;;;;;5015238;28;20030;-86
2020/12/31 13:28:49;;;;;;;1.17;0.93;;;;;;;;;;5014843;28;20026;-88
2020/12/31 13:31:15;;;;;;;2.88;0.77;;;;;;;;;;4997371;28;20496;-86
2020/12/31 13:33:41;;;;;;;1.63;1.52;;;;;;;;;;4989748;28;20457;-87
2020/12/31 13:36:07;;;;;;;1.52;1.08;;;;;;;;;;4997240;28;20045;-85
2020/12/31 13:38:33;;;;;;;0.70;0.70;;;;;;;;;;5028737;28;20104;-85
2020/12/31 13:40:59;;;;;;;1.67;0.93;;;;;;;;;;5027585;28;20030;-85
2020/12/31 13:43:26;;;;;;;1.15;0.75;;;;;;;;;;5004922;28;20499;-86
2020/12/31 13:45:52;;;;;;;2.22;1.30;;;;;;;;;;5016353;28;20682;-87
2020/12/31 13:48:18;;;;;;;1.13;0.70;;;;;;;;;;5016824;28;20121;-87
2020/12/31 13:50:44;;;;;;;1.17;0.68;;;;;;;;;;5015015;28;20539;-88
2020/12/31 13:53:10;;;;;;;1.15;0.60;;;;;;;;;;5016322;28;20576;-87
2020/12/31 13:55:37;;;;;;;0.52;0.52;;;;;;;;;;5016410;28;20108;-87
2020/12/31 13:58:03;;;;;;;0.30;0.30;;;;;;;;;;5021250;28;20033;-87
2020/12/31 14:00:29;;;;;;;0.85;0.52;;;;;;;;;;5032503;28;20079;-86
2020/12/31 14:02:56;;;;;;;0.50;0.40;;;;;;;;;;5014728;28;20074;-87
2020/12/31 14:05:22;;;;;;;0.82;0.65;;;;;;;;;;5034562;28;20358;-87
2020/12/31 14:07:48;;;;;;;0.55;0.55;;;;;;;;;;5025778;28;20477;-88
2020/12/31 14:10:14;;;;;;;0.90;0.85;;;;;;;;;;4994444;28;20385;-91
2020/12/31 14:12:43;;;;;;;1.00;1.00;;;;;;;;;;4994225;28;20034;-91
2020/12/31 14:15:09;;;;;;;0.38;0.38;;;;;;;;;;4995000;28;20037;-91
2020/12/31 14:17:35;;;;;;;1.25;1.15;;;;;;;;;;4997017;28;20036;-90
2020/12/31 14:20:02;;;;;;;0.80;0.40;;;;;;;;;;5016233;28;20018;-90
2020/12/31 14:22:28;;;;;;;0.75;0.50;;;;;;;;;;5002331;28;20033;-90
2020/12/31 14:24:54;;;;;;;1.13;1.08;;;;;;;;;;4997113;28;20495;-91
2020/12/31 14:27:20;;;;;;;1.85;0.50;;;;;;;;;;5026762;28;20468;-91
2020/12/31 14:29:46;;;;;;;1.85;1.02;;;;;;;;;;5035220;28;20021;-90
2020/12/31 14:32:12;;;;;;;0.50;0.50;;;;;;;;;;5017190;28;20022;-90
2020/12/31 14:34:38;;;;;;;0.85;0.57;;;;;;;;;;5015696;28;20056;-90
2020/12/31 14:37:05;;;;;;;1.13;0.85;;;;;;;;;;5015992;28;20032;-89
2020/12/31 14:39:31;;;;;;;0.85;0.57;;;;;;;;;;5033919;28;20386;-93
2020/12/31 14:41:57;;;;;;;2.53;0.50;;;;;;;;;;5006292;28;20267;-88
2020/12/31 14:44:23;;;;;;;1.10;1.00;;;;;;;;;;5012652;28;20022;-89